createdAt,value
2024-03-28T00:00:40.213Z,51.216118
2024-03-28T00:01:40.216Z,51.216133
2024-03-28T00:02:40.192Z,51.216099
2024-03-28T00:03:40.182Z,51.216091
2024-03-28T00:04:40.614Z,51.216187
2024-03-28T00:05:40.191Z,51.216209
2024-03-28T00:06:40.158Z,51.216232
2024-03-28T00:07:40.150Z,51.216038
2024-03-28T00:08:40.155Z,51.215950
2024-03-28T00:09:40.170Z,51.216022
2024-03-28T00:10:40.145Z,51.216003
2024-03-28T00:11:40.138Z,51.216007
2024-03-28T00:12:40.124Z,51.216049
2024-03-28T00:13:40.110Z,51.216038
2024-03-28T00:14:40.107Z,51.216084
2024-03-28T00:15:40.128Z,51.216183
2024-03-28T00:16:40.095Z,51.215961
2024-03-28T00:17:40.098Z,51.216129
2024-03-28T00:18:40.095Z,51.216061
2024-03-28T00:19:40.103Z,51.216148
2024-03-28T00:20:40.233Z,51.215992
2024-03-28T00:21:40.065Z,51.216095
2024-03-28T00:22:40.063Z,51.216049
2024-03-28T00:23:40.058Z,51.216110
2024-03-28T00:24:40.055Z,51.216087
2024-03-28T00:25:40.048Z,51.216106
2024-03-28T00:26:40.042Z,51.216068
2024-03-28T00:27:40.026Z,51.216038
2024-03-28T00:28:40.028Z,51.215939
2024-03-28T00:29:40.028Z,51.215881
2024-03-28T00:30:40.012Z,51.216084
2024-03-28T00:31:40.020Z,51.216122
2024-03-28T00:32:39.993Z,51.216084
2024-03-28T00:33:39.992Z,51.216232
2024-03-28T00:34:39.991Z,51.216160
2024-03-28T00:35:39.974Z,51.216064
2024-03-28T00:36:39.986Z,51.216137
2024-03-28T00:37:39.951Z,51.216045
2024-03-28T00:38:39.949Z,51.216045
2024-03-28T00:39:39.938Z,51.216095
2024-03-28T00:40:39.935Z,51.216045
2024-03-28T00:41:39.930Z,51.216099
2024-03-28T00:42:39.942Z,51.216202
2024-03-28T00:43:39.925Z,51.216225
2024-03-28T00:44:40.068Z,51.216129
2024-03-28T00:45:40.901Z,51.216297
2024-03-28T00:46:39.890Z,51.216228
2024-03-28T00:47:39.916Z,51.216171
2024-03-28T00:48:39.890Z,51.216106
2024-03-28T00:49:39.876Z,51.216034
2024-03-28T00:50:39.878Z,51.215881
2024-03-28T00:51:39.866Z,51.215927
2024-03-28T00:52:39.877Z,51.215973
2024-03-28T00:53:39.856Z,51.216080
2024-03-28T00:54:39.837Z,51.216084
2024-03-28T00:55:39.843Z,51.215912
2024-03-28T00:56:39.841Z,51.215904
2024-03-28T00:57:39.838Z,51.215893
2024-03-28T00:58:39.832Z,51.215965
2024-03-28T00:59:39.835Z,51.216057
2024-03-28T01:00:39.817Z,51.216110
2024-03-28T01:01:39.803Z,51.216087
2024-03-28T01:02:39.787Z,51.216084
2024-03-28T01:03:39.789Z,51.216026
2024-03-28T01:04:39.800Z,51.216053
2024-03-28T01:05:39.776Z,51.216064
2024-03-28T01:06:39.781Z,51.216125
2024-03-28T01:07:39.782Z,51.216087
2024-03-28T01:08:39.757Z,51.216084
2024-03-28T01:09:41.885Z,51.216228
2024-03-28T01:10:40.737Z,51.216194
2024-03-28T01:11:39.729Z,51.216145
2024-03-28T01:12:39.738Z,51.216202
2024-03-28T01:13:39.721Z,51.216160
2024-03-28T01:14:39.724Z,51.216137
2024-03-28T01:15:39.710Z,51.216095
2024-03-28T01:16:39.717Z,51.216095
2024-03-28T01:17:39.694Z,51.216087
2024-03-28T01:18:39.684Z,51.216091
2024-03-28T01:19:39.687Z,51.216099
2024-03-28T01:20:39.684Z,51.216080
2024-03-28T01:21:39.670Z,51.216087
2024-03-28T01:22:39.666Z,51.216057
2024-03-28T01:23:39.648Z,51.216007
2024-03-28T01:24:39.650Z,51.216038
2024-03-28T01:25:39.695Z,51.216099
2024-03-28T01:26:39.625Z,51.216080
2024-03-28T01:27:39.634Z,51.216076
2024-03-28T01:28:39.636Z,51.216057
2024-03-28T01:29:39.666Z,51.216026
2024-03-28T01:30:39.620Z,51.215992
2024-03-28T01:31:39.662Z,51.215908
2024-03-28T01:32:39.618Z,51.215950
2024-03-28T01:33:39.593Z,51.216076
2024-03-28T01:34:39.580Z,51.216057
2024-03-28T01:35:39.569Z,51.216084
2024-03-28T01:36:39.584Z,51.216114
2024-03-28T01:37:39.552Z,51.216202
2024-03-28T01:38:39.542Z,51.216171
2024-03-28T01:39:39.538Z,51.216152
2024-03-28T01:40:39.713Z,51.216137
2024-03-28T01:41:39.542Z,51.216133
2024-03-28T01:42:39.511Z,51.216125
2024-03-28T01:43:39.518Z,51.216152
2024-03-28T01:44:39.503Z,51.216118
2024-03-28T01:45:39.525Z,51.216137
2024-03-28T01:46:43.708Z,51.216187
2024-03-28T01:47:48.837Z,51.216160
2024-03-28T01:48:41.497Z,51.216183
2024-03-28T01:49:39.479Z,51.216114
2024-03-28T01:50:39.476Z,51.216125
2024-03-28T01:51:39.497Z,51.216034
2024-03-28T01:52:39.466Z,51.216087
2024-03-28T01:53:39.461Z,51.216087
2024-03-28T01:54:39.439Z,51.216145
2024-03-28T01:55:39.450Z,51.216156
2024-03-28T01:56:39.430Z,51.216251
2024-03-28T01:57:39.442Z,51.216194
2024-03-28T01:58:39.454Z,51.216106
2024-03-28T01:59:39.421Z,51.216095
2024-03-28T02:00:39.409Z,51.216152
2024-03-28T02:01:39.407Z,51.216114
2024-03-28T02:02:39.410Z,51.216175
2024-03-28T02:03:39.383Z,51.216087
2024-03-28T02:04:39.377Z,51.216099
2024-03-28T02:05:39.385Z,51.216145
2024-03-28T02:06:39.435Z,51.216202
2024-03-28T02:07:39.383Z,51.216129
2024-03-28T02:08:39.353Z,51.216084
2024-03-28T02:09:39.373Z,51.216183
2024-03-28T02:10:39.367Z,51.216072
2024-03-28T02:11:39.345Z,51.216061
2024-03-28T02:12:39.342Z,51.216091
2024-03-28T02:13:39.322Z,51.216061
2024-03-28T02:14:39.338Z,51.216137
2024-03-28T02:15:39.306Z,51.216118
2024-03-28T02:16:39.300Z,51.216003
2024-03-28T02:17:39.310Z,51.216179
2024-03-28T02:18:39.288Z,51.216179
2024-03-28T02:19:39.290Z,51.216110
2024-03-28T02:20:39.282Z,51.216148
2024-03-28T02:21:39.274Z,51.216175
2024-03-28T02:22:39.289Z,51.216141
2024-03-28T02:23:39.262Z,51.216076
2024-03-28T02:24:39.253Z,51.216038
2024-03-28T02:25:39.249Z,51.216091
2024-03-28T02:26:39.243Z,51.216049
2024-03-28T02:27:39.244Z,51.216026
2024-03-28T02:28:39.275Z,51.216087
2024-03-28T02:29:39.222Z,51.216125
2024-03-28T02:30:39.206Z,51.216084
2024-03-28T02:31:40.218Z,51.216114
2024-03-28T02:32:39.211Z,51.216038
2024-03-28T02:33:39.203Z,51.216118
2024-03-28T02:34:39.183Z,51.215988
2024-03-28T02:35:39.201Z,51.216084
2024-03-28T02:36:39.174Z,51.216122
2024-03-28T02:37:39.179Z,51.216087
2024-03-28T02:38:39.156Z,51.216103
2024-03-28T02:39:39.152Z,51.216187
2024-03-28T02:40:39.147Z,51.216103
2024-03-28T02:41:39.135Z,51.215939
2024-03-28T02:42:39.147Z,51.215973
2024-03-28T02:43:39.131Z,51.216160
2024-03-28T02:44:39.129Z,51.216064
2024-03-28T02:45:39.107Z,51.216133
2024-03-28T02:46:39.120Z,51.216129
2024-03-28T02:47:39.103Z,51.215969
2024-03-28T02:48:39.140Z,51.216026
2024-03-28T02:49:39.094Z,51.215988
2024-03-28T02:50:39.079Z,51.216022
2024-03-28T02:51:39.072Z,51.215927
2024-03-28T02:52:39.085Z,51.215893
2024-03-28T02:53:39.082Z,51.215679
2024-03-28T02:54:39.053Z,51.215809
2024-03-28T02:55:39.051Z,51.215858
2024-03-28T02:56:39.040Z,51.215919
2024-03-28T02:57:39.032Z,51.215935
2024-03-28T02:58:39.026Z,51.216084
2024-03-28T02:59:39.035Z,51.216084
2024-03-28T03:00:39.025Z,51.216057
2024-03-28T03:01:39.004Z,51.216099
2024-03-28T03:02:39.008Z,51.216068
2024-03-28T03:03:39.000Z,51.216034
2024-03-28T03:04:39.000Z,51.216076
2024-03-28T03:05:38.982Z,51.216068
2024-03-28T03:06:40.472Z,51.216030
2024-03-28T03:07:38.968Z,51.216099
2024-03-28T03:08:38.961Z,51.216068
2024-03-28T03:09:38.964Z,51.216049
2024-03-28T03:10:38.975Z,51.216026
2024-03-28T03:11:38.935Z,51.216068
2024-03-28T03:12:38.934Z,51.216125
2024-03-28T03:13:38.924Z,51.216175
2024-03-28T03:14:38.929Z,51.216156
2024-03-28T03:15:38.916Z,51.216118
2024-03-28T03:16:38.910Z,51.216133
2024-03-28T03:17:38.890Z,51.216209
2024-03-28T03:18:38.892Z,51.216167
2024-03-28T03:19:38.879Z,51.216156
2024-03-28T03:20:38.888Z,51.216114
2024-03-28T03:21:38.875Z,51.216091
2024-03-28T03:22:38.864Z,51.216042
2024-03-28T03:23:38.858Z,51.216030
2024-03-28T03:24:38.863Z,51.216053
2024-03-28T03:25:38.850Z,51.216068
2024-03-28T03:26:38.842Z,51.216057
2024-03-28T03:27:38.840Z,51.216034
2024-03-28T03:28:38.826Z,51.216000
2024-03-28T03:29:38.813Z,51.216091
2024-03-28T03:30:38.818Z,51.216034
2024-03-28T03:31:38.797Z,51.215969
2024-03-28T03:32:38.798Z,51.216022
2024-03-28T03:33:38.785Z,51.215965
2024-03-28T03:34:38.774Z,51.216022
2024-03-28T03:35:38.771Z,51.216099
2024-03-28T03:36:38.775Z,51.216122
2024-03-28T03:37:38.773Z,51.216187
2024-03-28T03:38:38.757Z,51.216122
2024-03-28T03:39:38.744Z,51.216084
2024-03-28T03:40:38.735Z,51.216160
2024-03-28T03:41:38.745Z,51.216175
2024-03-28T03:42:38.720Z,51.216190
2024-03-28T03:43:38.747Z,51.216183
2024-03-28T03:44:38.724Z,51.216152
2024-03-28T03:45:38.706Z,51.216125
2024-03-28T03:46:38.711Z,51.216122
2024-03-28T03:47:38.707Z,51.216106
2024-03-28T03:48:38.699Z,51.216114
2024-03-28T03:49:38.678Z,51.216206
2024-03-28T03:50:38.683Z,51.216160
2024-03-28T03:51:38.679Z,51.216194
2024-03-28T03:52:38.670Z,51.216179
2024-03-28T03:53:38.659Z,51.216125
2024-03-28T03:54:38.999Z,51.216244
2024-03-28T03:55:39.523Z,51.216190
2024-03-28T03:56:38.691Z,51.216190
2024-03-28T03:57:38.630Z,51.216183
2024-03-28T03:58:38.640Z,51.216198
2024-03-28T03:59:38.623Z,51.216129
2024-03-28T04:00:38.613Z,51.216110
2024-03-28T04:01:38.612Z,51.216194
2024-03-28T04:02:38.595Z,51.216156
2024-03-28T04:03:38.627Z,51.216087
2024-03-28T04:04:38.588Z,51.216114
2024-03-28T04:05:38.576Z,51.216213
2024-03-28T04:06:38.574Z,51.215984
2024-03-28T04:07:38.586Z,51.216015
2024-03-28T04:08:38.555Z,51.215816
2024-03-28T04:09:38.550Z,51.215912
2024-03-28T04:10:39.531Z,51.216171
2024-03-28T04:11:38.557Z,51.216141
2024-03-28T04:12:38.611Z,51.216099
2024-03-28T04:13:38.532Z,51.216106
2024-03-28T04:14:43.520Z,51.216217
2024-03-28T04:15:40.514Z,51.216137
2024-03-28T04:16:38.501Z,51.216217
2024-03-28T04:17:38.511Z,51.216351
2024-03-28T04:18:38.505Z,51.216213
2024-03-28T04:19:38.487Z,51.216286
2024-03-28T04:20:38.487Z,51.216183
2024-03-28T04:21:40.742Z,51.216232
2024-03-28T04:22:38.492Z,51.216232
2024-03-28T04:23:38.470Z,51.216076
2024-03-28T04:24:38.447Z,51.216125
2024-03-28T04:25:38.440Z,51.216076
2024-03-28T04:26:38.435Z,51.216042
2024-03-28T04:27:38.427Z,51.216030
2024-03-28T04:28:38.439Z,51.216038
2024-03-28T04:29:38.510Z,51.215988
2024-03-28T04:30:38.411Z,51.216042
2024-03-28T04:31:38.402Z,51.216118
2024-03-28T04:32:38.401Z,51.216080
2024-03-28T04:33:38.418Z,51.216099
2024-03-28T04:34:38.375Z,51.216194
2024-03-28T04:35:38.396Z,51.216198
2024-03-28T04:36:38.371Z,51.216141
2024-03-28T04:37:38.368Z,51.215977
2024-03-28T04:38:39.608Z,51.216030
2024-03-28T04:39:38.356Z,51.215996
2024-03-28T04:40:38.349Z,51.216064
2024-03-28T04:41:38.343Z,51.215984
2024-03-28T04:42:38.339Z,51.215996
2024-03-28T04:43:39.453Z,51.215870
2024-03-28T04:44:39.331Z,51.215858
2024-03-28T04:45:39.315Z,51.216053
2024-03-28T04:46:38.307Z,51.216042
2024-03-28T04:47:38.322Z,51.216072
2024-03-28T04:48:38.318Z,51.216103
2024-03-28T04:49:38.308Z,51.216049
2024-03-28T04:50:38.280Z,51.215908
2024-03-28T04:51:38.294Z,51.215889
2024-03-28T04:52:38.282Z,51.215939
2024-03-28T04:53:38.263Z,51.216038
2024-03-28T04:54:38.269Z,51.216026
2024-03-28T04:55:38.255Z,51.216045
2024-03-28T04:56:38.243Z,51.215946
2024-03-28T04:57:38.237Z,51.215984
2024-03-28T04:58:38.231Z,51.215950
2024-03-28T04:59:38.229Z,51.215919
2024-03-28T05:00:38.213Z,51.216030
2024-03-28T05:01:38.242Z,51.216026
2024-03-28T05:02:38.223Z,51.216015
2024-03-28T05:03:38.208Z,51.215866
2024-03-28T05:04:38.187Z,51.215900
2024-03-28T05:05:38.184Z,51.215919
2024-03-28T05:06:38.184Z,51.215744
2024-03-28T05:07:38.171Z,51.215996
2024-03-28T05:08:38.176Z,51.215939
2024-03-28T05:09:38.156Z,51.216000
2024-03-28T05:10:38.158Z,51.216076
2024-03-28T05:11:38.148Z,51.216072
2024-03-28T05:12:38.143Z,51.215981
2024-03-28T05:13:38.141Z,51.215946
2024-03-28T05:14:38.132Z,51.216026
2024-03-28T05:15:38.118Z,51.215927
2024-03-28T05:16:38.120Z,51.216045
2024-03-28T05:17:38.106Z,51.216091
2024-03-28T05:18:38.104Z,51.215954
2024-03-28T05:19:38.087Z,51.216011
2024-03-28T05:20:38.082Z,51.215927
2024-03-28T05:21:38.106Z,51.215797
2024-03-28T05:22:38.065Z,51.215908
2024-03-28T05:23:38.062Z,51.215897
2024-03-28T05:24:38.097Z,51.215958
2024-03-28T05:25:38.052Z,51.215969
2024-03-28T05:26:38.071Z,51.216030
2024-03-28T05:27:38.039Z,51.216049
2024-03-28T05:28:38.042Z,51.215984
2024-03-28T05:29:38.036Z,51.216076
2024-03-28T05:30:38.015Z,51.216106
2024-03-28T05:31:38.011Z,51.216080
2024-03-28T05:32:38.001Z,51.216022
2024-03-28T05:33:38.013Z,51.216026
2024-03-28T05:34:37.991Z,51.216038
2024-03-28T05:35:37.982Z,51.216022
2024-03-28T05:36:38.027Z,51.216084
2024-03-28T05:37:37.964Z,51.216034
2024-03-28T05:38:39.022Z,51.216084
2024-03-28T05:39:37.957Z,51.216011
2024-03-28T05:40:37.970Z,51.216084
2024-03-28T05:41:37.954Z,51.216057
2024-03-28T05:42:37.931Z,51.216076
2024-03-28T05:43:37.930Z,51.216095
2024-03-28T05:44:37.917Z,51.216072
2024-03-28T05:45:37.906Z,51.216152
2024-03-28T05:46:37.991Z,51.216118
2024-03-28T05:47:37.906Z,51.216125
2024-03-28T05:48:37.952Z,51.216103
2024-03-28T05:49:37.912Z,51.216141
2024-03-28T05:50:38.081Z,51.216122
2024-03-28T05:51:37.872Z,51.216099
2024-03-28T05:52:37.859Z,51.216141
2024-03-28T05:53:37.860Z,51.216225
2024-03-28T05:54:37.847Z,51.216202
2024-03-28T05:55:37.866Z,51.216095
2024-03-28T05:56:40.031Z,51.216099
2024-03-28T05:57:38.879Z,51.216080
2024-03-28T05:58:37.832Z,51.216084
2024-03-28T05:59:37.838Z,51.216110
2024-03-28T06:00:37.829Z,51.216148
2024-03-28T06:01:37.806Z,51.216091
2024-03-28T06:02:37.881Z,51.216095
2024-03-28T06:03:37.807Z,51.216087
2024-03-28T06:04:37.784Z,51.216095
2024-03-28T06:05:37.841Z,51.216091
2024-03-28T06:06:37.833Z,51.216099
2024-03-28T06:07:37.822Z,51.216145
2024-03-28T06:08:37.825Z,51.216072
2024-03-28T06:09:37.744Z,51.216030
2024-03-28T06:10:37.766Z,51.216148
2024-03-28T06:11:37.790Z,51.216122
2024-03-28T06:12:37.736Z,51.216106
2024-03-28T06:13:37.947Z,51.216141
2024-03-28T06:14:37.749Z,51.216122
2024-03-28T06:15:37.720Z,51.216064
2024-03-28T06:16:37.866Z,51.216064
2024-03-28T06:17:37.700Z,51.215950
2024-03-28T06:18:37.700Z,51.215981
2024-03-28T06:19:37.749Z,51.216003
2024-03-28T06:20:37.683Z,51.216038
2024-03-28T06:21:37.730Z,51.216129
2024-03-28T06:22:37.674Z,51.216034
2024-03-28T06:23:37.665Z,51.216057
2024-03-28T06:24:37.650Z,51.216061
2024-03-28T06:25:37.663Z,51.216106
2024-03-28T06:26:37.683Z,51.216240
2024-03-28T06:27:37.651Z,51.216251
2024-03-28T06:28:37.629Z,51.216095
2024-03-28T06:29:37.610Z,51.215996
2024-03-28T06:30:37.613Z,51.216160
2024-03-28T06:31:37.639Z,51.216122
2024-03-28T06:32:37.660Z,51.215981
2024-03-28T06:33:37.644Z,51.216057
2024-03-28T06:34:37.594Z,51.216019
2024-03-28T06:35:39.863Z,51.216061
2024-03-28T06:36:37.584Z,51.216061
2024-03-28T06:37:37.589Z,51.215954
2024-03-28T06:38:37.578Z,51.216053
2024-03-28T06:39:37.556Z,51.216137
2024-03-28T06:40:37.539Z,51.216145
2024-03-28T06:41:37.667Z,51.216141
2024-03-28T06:42:37.522Z,51.216129
2024-03-28T06:43:37.531Z,51.216099
2024-03-28T06:44:38.981Z,51.216072
2024-03-28T06:45:37.530Z,51.216099
2024-03-28T06:46:37.507Z,51.216099
2024-03-28T06:47:37.495Z,51.216076
2024-03-28T06:48:37.499Z,51.216091
2024-03-28T06:49:37.487Z,51.216080
2024-03-28T06:50:37.487Z,51.216209
2024-03-28T06:51:37.504Z,51.216148
2024-03-28T06:52:37.462Z,51.216160
2024-03-28T06:53:37.459Z,51.216122
2024-03-28T06:54:37.448Z,51.216084
2024-03-28T06:55:37.442Z,51.216095
2024-03-28T06:56:37.435Z,51.216141
2024-03-28T06:57:37.433Z,51.216236
2024-03-28T06:58:37.446Z,51.216160
2024-03-28T06:59:37.424Z,51.216091
2024-03-28T07:00:37.426Z,51.216110
2024-03-28T07:01:37.408Z,51.216133
2024-03-28T07:02:37.397Z,51.216042
2024-03-28T07:03:37.399Z,51.216019
2024-03-28T07:04:37.380Z,51.215996
2024-03-28T07:05:37.387Z,51.216003
2024-03-28T07:06:37.375Z,51.215973
2024-03-28T07:07:37.366Z,51.216064
2024-03-28T07:08:37.380Z,51.216003
2024-03-28T07:09:37.345Z,51.215977
2024-03-28T07:10:37.354Z,51.215981
2024-03-28T07:11:37.326Z,51.216011
2024-03-28T07:12:37.328Z,51.215919
2024-03-28T07:13:37.328Z,51.215633
2024-03-28T07:14:37.316Z,51.215786
2024-03-28T07:15:37.298Z,51.215931
2024-03-28T07:16:37.356Z,51.215893
2024-03-28T07:17:37.292Z,51.215939
2024-03-28T07:18:37.328Z,51.215916
2024-03-28T07:19:37.285Z,51.215904
2024-03-28T07:20:37.271Z,51.215927
2024-03-28T07:21:37.278Z,51.215946
2024-03-28T07:22:37.265Z,51.215946
2024-03-28T07:23:37.267Z,51.215965
2024-03-28T07:24:37.271Z,51.216068
2024-03-28T07:25:37.238Z,51.215893
2024-03-28T07:26:37.238Z,51.215759
2024-03-28T07:27:37.224Z,51.215919
2024-03-28T07:28:37.249Z,51.215981
2024-03-28T07:29:37.220Z,51.215992
2024-03-28T07:30:37.215Z,51.216034
2024-03-28T07:31:37.199Z,51.215977
2024-03-28T07:32:37.196Z,51.216003
2024-03-28T07:33:37.197Z,51.215981
2024-03-28T07:34:37.187Z,51.216022
2024-03-28T07:35:37.184Z,51.216087
2024-03-28T07:36:37.167Z,51.216106
2024-03-28T07:37:37.183Z,51.216038
2024-03-28T07:38:37.184Z,51.216019
2024-03-28T07:39:37.182Z,51.215927
2024-03-28T07:40:37.142Z,51.216110
2024-03-28T07:41:37.136Z,51.216061
2024-03-28T07:42:37.146Z,51.215992
2024-03-28T07:43:37.118Z,51.216015
2024-03-28T07:44:37.141Z,51.216019
2024-03-28T07:45:37.108Z,51.216137
2024-03-28T07:46:37.118Z,51.216202
2024-03-28T07:47:37.148Z,51.216068
2024-03-28T07:48:38.039Z,51.216114
2024-03-28T07:49:37.096Z,51.216106
2024-03-28T07:50:37.098Z,51.216049
2024-03-28T07:51:37.065Z,51.216015
2024-03-28T07:52:37.053Z,51.216133
2024-03-28T07:53:37.052Z,51.216118
2024-03-28T07:54:37.330Z,51.216183
2024-03-28T07:55:38.043Z,51.216282
2024-03-28T07:56:37.018Z,51.216171
2024-03-28T07:57:37.015Z,51.216091
2024-03-28T07:58:37.056Z,51.216129
2024-03-28T07:59:37.014Z,51.216175
2024-03-28T08:00:37.014Z,51.216137
2024-03-28T08:01:37.000Z,51.216179
2024-03-28T08:02:36.974Z,51.216240
2024-03-28T08:03:36.985Z,51.216232
2024-03-28T08:04:36.968Z,51.216213
2024-03-28T08:05:36.969Z,51.216080
2024-03-28T08:06:36.945Z,51.216091
2024-03-28T08:07:36.949Z,51.216194
2024-03-28T08:08:36.948Z,51.216160
2024-03-28T08:09:36.930Z,51.216225
2024-03-28T08:10:36.913Z,51.216187
2024-03-28T08:11:36.934Z,51.216209
2024-03-28T08:12:36.906Z,51.216156
2024-03-28T08:13:36.920Z,51.216179
2024-03-28T08:14:36.888Z,51.216175
2024-03-28T08:15:36.902Z,51.216202
2024-03-28T08:16:36.969Z,51.216064
2024-03-28T08:17:36.879Z,51.216003
2024-03-28T08:18:36.863Z,51.216099
2024-03-28T08:19:36.859Z,51.216183
2024-03-28T08:20:36.874Z,51.216156
2024-03-28T08:21:36.835Z,51.216194
2024-03-28T08:22:36.844Z,51.216194
2024-03-28T08:23:36.847Z,51.216110
2024-03-28T08:24:36.840Z,51.215996
2024-03-28T08:25:36.815Z,51.216030
2024-03-28T08:26:36.825Z,51.216030
2024-03-28T08:27:36.817Z,51.216080
2024-03-28T08:28:36.792Z,51.216118
2024-03-28T08:29:36.804Z,51.216084
2024-03-28T08:30:36.796Z,51.216160
2024-03-28T08:31:37.491Z,51.216167
2024-03-28T08:32:36.775Z,51.216129
2024-03-28T08:33:36.775Z,51.216171
2024-03-28T08:34:36.761Z,51.216187
2024-03-28T08:35:36.755Z,51.216175
2024-03-28T08:36:36.795Z,51.216171
2024-03-28T08:37:36.736Z,51.216118
2024-03-28T08:38:36.729Z,51.216076
2024-03-28T08:39:36.729Z,51.216137
2024-03-28T08:40:36.753Z,51.216152
2024-03-28T08:41:36.742Z,51.216148
2024-03-28T08:42:36.726Z,51.216167
2024-03-28T08:43:36.711Z,51.216118
2024-03-28T08:44:36.688Z,51.216148
2024-03-28T08:45:36.718Z,51.216156
2024-03-28T08:46:36.702Z,51.216171
2024-03-28T08:47:36.777Z,51.216095
2024-03-28T08:48:36.673Z,51.216091
2024-03-28T08:49:36.675Z,51.216045
2024-03-28T08:50:36.660Z,51.216148
2024-03-28T08:51:36.683Z,51.216133
2024-03-28T08:52:36.673Z,51.216141
2024-03-28T08:53:36.710Z,51.216087
2024-03-28T08:54:36.661Z,51.216171
2024-03-28T08:55:36.631Z,51.216045
2024-03-28T08:56:36.661Z,51.216072
2024-03-28T08:57:36.651Z,51.216076
2024-03-28T08:58:36.639Z,51.216125
2024-03-28T08:59:36.634Z,51.216141
2024-03-28T09:00:36.630Z,51.216118
2024-03-28T09:01:37.553Z,51.216114
2024-03-28T09:02:36.597Z,51.216179
2024-03-28T09:03:36.557Z,51.216194
2024-03-28T09:04:36.600Z,51.216152
2024-03-28T09:05:36.583Z,51.216148
2024-03-28T09:06:36.618Z,51.216221
2024-03-28T09:07:36.539Z,51.216179
2024-03-28T09:08:36.580Z,51.216145
2024-03-28T09:09:36.574Z,51.216232
2024-03-28T09:10:37.438Z,51.216175
2024-03-28T09:11:37.497Z,51.216255
2024-03-28T09:12:36.506Z,51.216171
2024-03-28T09:13:36.546Z,51.216137
2024-03-28T09:14:36.471Z,51.216011
2024-03-28T09:15:36.477Z,51.216042
2024-03-28T09:16:36.504Z,51.216099
2024-03-28T09:17:36.456Z,51.216061
2024-03-28T09:18:36.455Z,51.216141
2024-03-28T09:19:36.450Z,51.216080
2024-03-28T09:20:36.435Z,51.216106
2024-03-28T09:21:36.444Z,51.216080
2024-03-28T09:22:36.461Z,51.216164
2024-03-28T09:23:36.419Z,51.216099
2024-03-28T09:24:36.445Z,51.216145
2024-03-28T09:25:36.518Z,51.216167
2024-03-28T09:26:36.715Z,51.216122
2024-03-28T09:27:36.392Z,51.216099
2024-03-28T09:28:36.405Z,51.216129
2024-03-28T09:29:36.371Z,51.216148
2024-03-28T09:30:36.371Z,51.216156
2024-03-28T09:31:36.578Z,51.216183
2024-03-28T09:32:36.346Z,51.216114
2024-03-28T09:33:36.341Z,51.216064
2024-03-28T09:34:36.336Z,51.216034
2024-03-28T09:35:36.331Z,51.216045
2024-03-28T09:36:36.323Z,51.216087
2024-03-28T09:37:36.316Z,51.216164
2024-03-28T09:38:36.303Z,51.216167
2024-03-28T09:39:36.308Z,51.216072
2024-03-28T09:40:36.352Z,51.216049
2024-03-28T09:41:36.273Z,51.216034
2024-03-28T09:42:36.310Z,51.215981
2024-03-28T09:43:36.271Z,51.216064
2024-03-28T09:44:36.261Z,51.216087
2024-03-28T09:45:36.245Z,51.216076
2024-03-28T09:46:36.317Z,51.216095
2024-03-28T09:47:36.238Z,51.216053
2024-03-28T09:48:36.221Z,51.216080
2024-03-28T09:49:36.242Z,51.216133
2024-03-28T09:50:36.210Z,51.216175
2024-03-28T09:51:36.215Z,51.216106
2024-03-28T09:52:36.254Z,51.216152
2024-03-28T09:53:36.251Z,51.216103
2024-03-28T09:54:36.193Z,51.216167
2024-03-28T09:55:36.198Z,51.216148
2024-03-28T09:56:36.219Z,51.216114
2024-03-28T09:57:36.162Z,51.216129
2024-03-28T09:58:36.248Z,51.216187
2024-03-28T09:59:36.158Z,51.216152
2024-03-28T10:00:36.282Z,51.216057
2024-03-28T10:01:36.234Z,51.216038
2024-03-28T10:02:36.141Z,51.216049
2024-03-28T10:03:36.123Z,51.216076
2024-03-28T10:04:36.128Z,51.216061
2024-03-28T10:05:36.109Z,51.216057
2024-03-28T10:06:36.162Z,51.216118
2024-03-28T10:07:36.109Z,51.216103
2024-03-28T10:08:36.085Z,51.215931
2024-03-28T10:09:36.074Z,51.215900
2024-03-28T10:10:36.093Z,51.215866
2024-03-28T10:11:36.112Z,51.216042
2024-03-28T10:12:36.046Z,51.216030
2024-03-28T10:13:36.056Z,51.216099
2024-03-28T10:14:36.050Z,51.215977
2024-03-28T10:15:36.036Z,51.216038
2024-03-28T10:16:36.099Z,51.216003
2024-03-28T10:17:36.027Z,51.216221
2024-03-28T10:18:36.006Z,51.216148
2024-03-28T10:19:36.048Z,51.216091
2024-03-28T10:20:36.005Z,51.215969
2024-03-28T10:21:36.078Z,51.215981
2024-03-28T10:22:37.030Z,51.216061
2024-03-28T10:23:35.984Z,51.216095
2024-03-28T10:24:35.979Z,51.216118
2024-03-28T10:25:36.047Z,51.216045
2024-03-28T10:26:35.972Z,51.216064
2024-03-28T10:27:35.958Z,51.216152
2024-03-28T10:28:36.018Z,51.216194
2024-03-28T10:29:35.958Z,51.216122
2024-03-28T10:30:35.940Z,51.216106
2024-03-28T10:31:35.959Z,51.216133
2024-03-28T10:32:35.930Z,51.216213
2024-03-28T10:33:35.937Z,51.216045
2024-03-28T10:34:35.926Z,51.216045
2024-03-28T10:35:35.911Z,51.216042
2024-03-28T10:36:35.889Z,51.216084
2024-03-28T10:37:45.332Z,51.215961
2024-03-28T10:38:38.003Z,51.216019
2024-03-28T10:39:35.869Z,51.216061
2024-03-28T10:40:35.873Z,51.216167
2024-03-28T10:41:36.526Z,51.216118
2024-03-28T10:42:35.861Z,51.216064
2024-03-28T10:43:35.874Z,51.215858
2024-03-28T10:44:35.844Z,51.215801
2024-03-28T10:45:35.842Z,51.215923
2024-03-28T10:46:35.845Z,51.215927
2024-03-28T10:47:35.912Z,51.215984
2024-03-28T10:48:35.847Z,51.216084
2024-03-28T10:49:35.874Z,51.216061
2024-03-28T10:50:35.797Z,51.216019
2024-03-28T10:51:35.785Z,51.216064
2024-03-28T10:52:35.841Z,51.216072
2024-03-28T10:53:37.872Z,51.216129
2024-03-28T10:54:35.901Z,51.216045
2024-03-28T10:55:36.198Z,51.216091
2024-03-28T10:56:36.750Z,51.216076
2024-03-28T10:57:35.754Z,51.216110
2024-03-28T10:58:35.752Z,51.216137
2024-03-28T10:59:35.748Z,51.216125
2024-03-28T11:00:35.727Z,51.216122
2024-03-28T11:01:36.443Z,51.216133
2024-03-28T11:02:36.771Z,51.216125
2024-03-28T11:03:35.705Z,51.216087
2024-03-28T11:04:35.731Z,51.216167
2024-03-28T11:05:35.722Z,51.216206
2024-03-28T11:06:35.693Z,51.216160
2024-03-28T11:07:35.715Z,51.216114
2024-03-28T11:08:35.678Z,51.216141
2024-03-28T11:09:35.662Z,51.216133
2024-03-28T11:10:35.678Z,51.216152
2024-03-28T11:11:35.664Z,51.216129
2024-03-28T11:12:35.645Z,51.216118
2024-03-28T11:13:35.651Z,51.216122
2024-03-28T11:14:35.641Z,51.216087
2024-03-28T11:15:35.642Z,51.216030
2024-03-28T11:16:35.721Z,51.216049
2024-03-28T11:17:35.631Z,51.215916
2024-03-28T11:18:35.601Z,51.215965
2024-03-28T11:19:35.612Z,51.215969
2024-03-28T11:20:35.585Z,51.216011
2024-03-28T11:21:36.061Z,51.216011
2024-03-28T11:22:35.596Z,51.216045
2024-03-28T11:23:35.580Z,51.215878
2024-03-28T11:24:35.563Z,51.215908